Time,TemperatureF,DewpointF,PressureIn,WindDirection,WindDirectionDegrees,WindSpeedMPH,WindSpeedGustMPH,Humidity,HourlyPrecipIn,Conditions,Clouds,dailyrainin,SoftwareType,DateUTC
2013-03-19 00:13:00,42.3,41.8,29.68,SSE,157,4.2,-999.0,98,-99.99,,,0.00,Acu-Link.com,2013-03-19 04:13:00,
2013-03-19 00:28:00,42.6,42.1,29.69,South,180,0.0,-999.0,98,-99.99,,,0.01,Acu-Link.com,2013-03-19 04:28:00,
2013-03-19 00:43:00,42.6,42.1,29.69,South,180,0.0,-999.0,98,-99.99,,,0.01,Acu-Link.com,2013-03-19 04:43:00,
2013-03-19 00:58:00,42.8,42.3,29.68,NW,315,0.0,-999.0,98,-99.99,,,0.01,Acu-Link.com,2013-03-19 04:58:00,
2013-03-19 01:13:00,42.8,42.3,29.69,NNW,337,0.0,-999.0,98,-99.99,,,0.01,Acu-Link.com,2013-03-19 05:13:00,
2013-03-19 01:28:00,43.0,42.5,29.69,NNE,22,1.1,-999.0,98,-99.99,,,0.01,Acu-Link.com,2013-03-19 05:28:00,
2013-03-19 01:43:00,43.2,42.7,29.69,North,0,1.7,-999.0,98,-99.99,,,0.01,Acu-Link.com,2013-03-19 05:43:00,
2013-03-19 01:59:00,43.5,43.0,29.70,ESE,112,1.7,-999.0,98,-99.99,,,0.01,Acu-Link.com,2013-03-19 05:59:00,
2013-03-19 02:14:00,43.2,42.7,29.70,NE,45,3.7,-999.0,98,-99.99,,,0.01,Acu-Link.com,2013-03-19 06:14:00,
2013-03-19 02:29:00,43.0,42.5,29.68,NE,45,2.2,-999.0,98,-99.99,,,0.01,Acu-Link.com,2013-03-19 06:29:00,
2013-03-19 02:44:00,43.2,42.7,29.67,ESE,112,0.0,-999.0,98,-99.99,,,0.01,Acu-Link.com,2013-03-19 06:44:00,
2013-03-19 02:59:00,43.2,42.7,29.67,NNW,337,0.0,-999.0,98,-99.99,,,0.01,Acu-Link.com,2013-03-19 06:59:00,
2013-03-19 03:14:00,43.3,42.8,29.66,North,0,0.0,-999.0,98,-99.99,,,0.01,Acu-Link.com,2013-03-19 07:14:00,
2013-03-19 03:29:00,43.3,42.8,29.66,NNW,337,0.0,-999.0,98,-99.99,,,0.01,Acu-Link.com,2013-03-19 07:29:00,
2013-03-19 03:44:00,43.3,42.8,29.66,NNW,337,3.2,-999.0,98,-99.99,,,0.01,Acu-Link.com,2013-03-19 07:44:00,
2013-03-19 03:59:00,43.2,42.7,29.66,SSE,157,0.0,-999.0,98,-99.99,,,0.01,Acu-Link.com,2013-03-19 07:59:00,
2013-03-19 04:15:00,43.2,42.7,29.65,NNW,337,1.1,-999.0,98,-99.99,,,0.01,Acu-Link.com,2013-03-19 08:15:00,
2013-03-19 04:30:00,43.0,42.5,29.65,ESE,112,1.1,-999.0,98,-99.99,,,0.01,Acu-Link.com,2013-03-19 08:30:00,
2013-03-19 04:45:00,42.8,42.3,29.65,NW,315,3.2,-999.0,98,-99.99,,,0.01,Acu-Link.com,2013-03-19 08:45:00,
2013-03-19 05:00:00,42.8,42.3,29.67,NE,45,1.7,-999.0,98,-99.99,,,0.01,Acu-Link.com,2013-03-19 09:00:00,
2013-03-19 05:15:00,42.8,42.3,29.67,ESE,112,2.2,-999.0,98,-99.99,,,0.01,Acu-Link.com,2013-03-19 09:15:00,
2013-03-19 05:30:00,42.3,41.8,29.67,ESE,112,2.7,-999.0,98,-99.99,,,0.01,Acu-Link.com,2013-03-19 09:30:00,
2013-03-19 05:45:00,42.6,42.1,29.67,ENE,67,0.0,-999.0,98,-99.99,,,0.01,Acu-Link.com,2013-03-19 09:45:00,
2013-03-19 06:01:00,42.6,42.1,29.67,NNW,337,0.0,-999.0,98,-99.99,,,0.01,Acu-Link.com,2013-03-19 10:01:00,
2013-03-19 06:16:00,42.6,42.1,29.67,WNW,292,0.0,-999.0,98,-99.99,,,0.01,Acu-Link.com,2013-03-19 10:16:00,
2013-03-19 06:31:00,42.8,42.3,29.67,ENE,67,1.7,-999.0,98,-99.99,,,0.01,Acu-Link.com,2013-03-19 10:31:00,
2013-03-19 07:16:00,43.2,42.7,29.66,SSE,157,0.0,-999.0,98,-99.99,,,0.01,Acu-Link.com,2013-03-19 11:16:00,
2013-03-19 07:31:00,43.5,43.0,29.66,SSE,157,0.0,-999.0,98,-99.99,,,0.01,Acu-Link.com,2013-03-19 11:31:00,
2013-03-19 07:46:00,43.7,43.2,29.66,SSE,157,1.1,-999.0,98,-99.99,,,0.01,Acu-Link.com,2013-03-19 11:46:00,
2013-03-19 08:01:00,44.1,43.6,29.68,East,90,1.7,-999.0,98,-99.99,,,0.01,Acu-Link.com,2013-03-19 12:01:00,
2013-03-19 08:17:00,44.2,43.7,29.69,SSW,202,0.0,-999.0,98,-99.99,,,0.01,Acu-Link.com,2013-03-19 12:17:00,
2013-03-19 08:47:00,44.8,44.3,29.71,North,0,1.7,-999.0,98,-99.99,,,0.01,Acu-Link.com,2013-03-19 12:47:00,
2013-03-19 09:02:00,45.3,44.8,29.71,SSE,157,2.2,-999.0,98,-99.99,,,0.01,Acu-Link.com,2013-03-19 13:02:00,
2013-03-19 09:17:00,46.4,45.9,29.73,NNE,22,1.7,-999.0,98,-99.99,,,0.01,Acu-Link.com,2013-03-19 13:17:00,
2013-03-19 09:32:00,46.9,46.4,29.72,NE,45,1.7,-999.0,98,-99.99,,,0.01,Acu-Link.com,2013-03-19 13:32:00,
2013-03-19 09:47:00,47.3,46.8,29.72,NW,315,2.2,-999.0,98,-99.99,,,0.01,Acu-Link.com,2013-03-19 13:47:00,
2013-03-19 10:02:00,46.9,46.4,29.73,SSW,202,1.7,-999.0,98,-99.99,,,0.01,Acu-Link.com,2013-03-19 14:02:00,
2013-03-19 10:17:00,47.7,47.2,29.73,SW,225,2.2,-999.0,98,-99.99,,,0.01,Acu-Link.com,2013-03-19 14:17:00,
2013-03-19 10:33:00,49.1,48.6,29.73,NNW,337,2.7,-999.0,98,-99.99,,,0.01,Acu-Link.com,2013-03-19 14:33:00,
2013-03-19 10:48:00,49.3,48.8,29.74,NNW,337,1.1,-999.0,98,-99.99,,,0.01,Acu-Link.com,2013-03-19 14:48:00,
2013-03-19 11:03:00,52.0,51.5,29.74,WNW,292,2.7,-999.0,98,-99.99,,,0.01,Acu-Link.com,2013-03-19 15:03:00,
2013-03-19 11:18:00,53.6,53.0,29.75,WNW,292,2.7,-999.0,98,-99.99,,,0.01,Acu-Link.com,2013-03-19 15:18:00,
2013-03-19 11:33:00,55.0,54.4,29.75,NE,45,2.2,-999.0,98,-99.99,,,0.01,Acu-Link.com,2013-03-19 15:33:00,
2013-03-19 11:48:00,56.1,55.5,29.74,West,270,3.2,-999.0,98,-99.99,,,0.01,Acu-Link.com,2013-03-19 15:48:00,
2013-03-19 12:03:00,57.9,57.3,29.74,North,0,3.7,-999.0,98,-99.99,,,0.01,Acu-Link.com,2013-03-19 16:03:00,
2013-03-19 12:18:00,58.3,57.7,29.73,East,90,3.2,-999.0,98,-99.99,,,0.01,Acu-Link.com,2013-03-19 16:18:00,
2013-03-19 12:33:00,60.4,53.5,29.73,SSW,202,4.7,-999.0,78,-99.99,,,0.01,Acu-Link.com,2013-03-19 16:33:00,
2013-03-19 12:49:00,61.2,50.2,29.72,ESE,112,2.2,-999.0,67,-99.99,,,0.01,Acu-Link.com,2013-03-19 16:49:00,
2013-03-19 13:04:00,61.5,50.0,29.72,West,270,2.2,-999.0,66,-99.99,,,0.01,Acu-Link.com,2013-03-19 17:04:00,
2013-03-19 13:19:00,63.1,47.1,29.71,East,90,3.2,-999.0,56,-99.99,,,0.01,Acu-Link.com,2013-03-19 17:19:00,
2013-03-19 13:34:00,63.0,45.1,29.71,WSW,247,3.2,-999.0,52,-99.99,,,0.01,Acu-Link.com,2013-03-19 17:34:00,
2013-03-19 13:49:00,64.4,46.4,29.71,West,270,2.7,-999.0,52,-99.99,,,0.01,Acu-Link.com,2013-03-19 17:49:00,
2013-03-19 14:04:00,64.2,44.6,29.71,WSW,247,1.1,-999.0,49,-99.99,,,0.01,Acu-Link.com,2013-03-19 18:04:00,
2013-03-19 14:19:00,64.8,43.5,29.71,SSE,157,2.2,-999.0,46,-99.99,,,0.01,Acu-Link.com,2013-03-19 18:19:00,
2013-03-19 14:34:00,66.2,44.8,29.70,SW,225,3.2,-999.0,46,-99.99,,,0.01,Acu-Link.com,2013-03-19 18:34:00,
2013-03-19 14:49:00,65.3,42.2,29.70,NW,315,4.2,-999.0,43,-99.99,,,0.01,Acu-Link.com,2013-03-19 18:49:00,
2013-03-19 15:05:00,66.2,39.2,29.69,East,90,2.7,-999.0,37,-99.99,,,0.01,Acu-Link.com,2013-03-19 19:05:00,
2013-03-19 15:20:00,67.1,42.0,29.69,West,270,2.2,-999.0,40,-99.99,,,0.01,Acu-Link.com,2013-03-19 19:20:00,
2013-03-19 15:35:00,67.5,41.0,29.69,ESE,112,2.7,-999.0,38,-99.99,,,0.01,Acu-Link.com,2013-03-19 19:35:00,
2013-03-19 15:50:00,67.1,40.0,29.69,SSW,202,5.8,-999.0,37,-99.99,,,0.01,Acu-Link.com,2013-03-19 19:50:00,
2013-03-19 16:05:00,68.2,41.6,29.69,North,0,3.7,-999.0,38,-99.99,,,0.01,Acu-Link.com,2013-03-19 20:05:00,
2013-03-19 16:20:00,67.1,42.0,29.70,North,0,2.7,-999.0,40,-99.99,,,0.01,Acu-Link.com,2013-03-19 20:20:00,
2013-03-19 16:35:00,66.7,38.2,29.70,SSE,157,2.7,-999.0,35,-99.99,,,0.01,Acu-Link.com,2013-03-19 20:35:00,
2013-03-19 16:50:00,66.4,34.8,29.70,NNE,22,3.7,-999.0,31,-99.99,,,0.01,Acu-Link.com,2013-03-19 20:50:00,
2013-03-19 17:05:00,66.0,35.3,29.70,South,180,6.8,-999.0,32,-99.99,,,0.01,Acu-Link.com,2013-03-19 21:05:00,
2013-03-19 17:21:00,65.7,33.4,29.71,South,180,3.7,-999.0,30,-99.99,,,0.01,Acu-Link.com,2013-03-19 21:21:00,
2013-03-19 17:36:00,65.3,31.4,29.71,North,0,4.2,-999.0,28,-99.99,,,0.01,Acu-Link.com,2013-03-19 21:36:00,
2013-03-19 18:06:00,64.4,29.7,29.71,WNW,292,2.7,-999.0,27,-99.99,,,0.01,Acu-Link.com,2013-03-19 22:06:00,
2013-03-19 18:21:00,63.9,28.3,29.71,SSW,202,2.2,-999.0,26,-99.99,,,0.01,Acu-Link.com,2013-03-19 22:21:00,
2013-03-19 18:36:00,63.0,27.6,29.72,ESE,112,1.7,-999.0,26,-99.99,,,0.01,Acu-Link.com,2013-03-19 22:36:00,
2013-03-19 18:51:00,62.6,25.3,29.73,SW,225,2.7,-999.0,24,-99.99,,,0.01,Acu-Link.com,2013-03-19 22:51:00,
2013-03-19 19:06:00,61.7,24.5,29.74,WNW,292,1.7,-999.0,24,-99.99,,,0.01,Acu-Link.com,2013-03-19 23:06:00,
2013-03-19 19:21:00,60.1,26.9,29.75,South,180,4.2,-999.0,28,-99.99,,,0.01,Acu-Link.com,2013-03-19 23:21:00,
2013-03-19 19:36:00,59.5,26.4,29.75,South,180,2.7,-999.0,28,-99.99,,,0.01,Acu-Link.com,2013-03-19 23:36:00,
2013-03-19 19:52:00,58.5,25.5,29.75,SE,135,2.2,-999.0,28,-99.99,,,0.01,Acu-Link.com,2013-03-19 23:52:00,
2013-03-19 20:07:00,57.4,25.4,29.76,ENE,67,1.7,-999.0,29,-99.99,,,0.01,Acu-Link.com,2013-03-20 00:07:00,
2013-03-19 20:22:00,56.7,25.6,29.77,NE,45,1.7,-999.0,30,-99.99,,,0.01,Acu-Link.com,2013-03-20 00:22:00,
2013-03-19 20:37:00,56.5,26.2,29.78,West,270,2.2,-999.0,31,-99.99,,,0.01,Acu-Link.com,2013-03-20 00:37:00,
2013-03-19 20:52:00,56.1,26.7,29.78,SSW,202,1.7,-999.0,32,-99.99,,,0.01,Acu-Link.com,2013-03-20 00:52:00,
2013-03-19 21:07:00,55.8,27.1,29.79,WSW,247,2.7,-999.0,33,-99.99,,,0.01,Acu-Link.com,2013-03-20 01:07:00,
2013-03-19 21:22:00,56.7,27.2,29.80,NNW,337,6.3,-999.0,32,-99.99,,,0.01,Acu-Link.com,2013-03-20 01:22:00,
2013-03-19 21:37:00,55.9,27.2,29.81,ESE,112,1.1,-999.0,33,-99.99,,,0.01,Acu-Link.com,2013-03-20 01:37:00,
2013-03-19 21:52:00,54.9,27.8,29.82,North,0,4.7,-999.0,35,-99.99,,,0.01,Acu-Link.com,2013-03-20 01:52:00,
2013-03-19 22:08:00,54.1,27.7,29.83,South,180,1.7,-999.0,36,-99.99,,,0.01,Acu-Link.com,2013-03-20 02:08:00,
2013-03-19 22:23:00,54.1,27.1,29.83,South,180,2.2,-999.0,35,-99.99,,,0.01,Acu-Link.com,2013-03-20 02:23:00,
2013-03-19 22:38:00,53.6,26.6,29.83,NE,45,3.2,-999.0,35,-99.99,,,0.01,Acu-Link.com,2013-03-20 02:38:00,
2013-03-19 22:53:00,53.1,26.9,29.84,NNW,337,2.7,-999.0,36,-99.99,,,0.01,Acu-Link.com,2013-03-20 02:53:00,
2013-03-19 23:08:00,52.7,24.4,29.84,West,270,3.7,-999.0,33,-99.99,,,0.01,Acu-Link.com,2013-03-20 03:08:00,
2013-03-19 23:23:00,52.0,19.9,29.85,NE,45,1.7,-999.0,28,-99.99,,,0.01,Acu-Link.com,2013-03-20 03:23:00,
2013-03-19 23:38:00,51.4,16.8,29.85,North,0,4.2,-999.0,25,-99.99,,,0.01,Acu-Link.com,2013-03-20 03:38:00,
2013-03-19 23:53:00,50.9,16.4,29.85,NNE,22,6.3,-999.0,25,-99.99,,,0.01,Acu-Link.com,2013-03-20 03:53:00,